Time;durP1;ratioP1;P1;durP2;ratioP2;P2;SDS_P1;SDS_P2;PMS_P1;PMS_P2;Temp;Humidity;BMP_temperature;BMP_pressure;BME280_temperature;BME280_humidity;BME280_pressure;Samples;Min_cycle;Max_cycle;Signal;HPM_P1;HPM_P2
2023/04/10 00:00:08;;;;;;;89.85;41.28;;;8.00;99.90;;;;;;5056337;28;20057;-81
2023/04/10 00:02:36;;;;;;;87.88;41.55;;;8.00;99.90;;;;;;5055053;28;20048;-80
2023/04/10 00:05:02;;;;;;;88.85;43.95;;;8.00;99.90;;;;;;5055565;28;20520;-83
2023/04/10 00:07:28;;;;;;;90.25;44.17;;;8.00;99.90;;;;;;5053343;28;20053;-77
2023/04/10 00:09:54;;;;;;;94.63;42.38;;;7.90;99.90;;;;;;5053186;28;20052;-79
2023/04/10 00:12:20;;;;;;;91.75;42.95;;;8.00;99.90;;;;;;5052996;28;20076;-81
2023/04/10 00:14:45;;;;;;;93.18;39.10;;;7.90;99.90;;;;;;5068594;28;20037;-79
2023/04/10 00:17:11;;;;;;;91.25;43.78;;;8.00;99.90;;;;;;5053222;28;20041;-81
2023/04/10 00:19:37;;;;;;;97.75;45.13;;;7.90;99.90;;;;;;5035381;28;20493;-81
2023/04/10 00:22:03;;;;;;;94.30;44.78;;;7.90;99.90;;;;;;5035133;28;20481;-83
2023/04/10 00:24:29;;;;;;;98.03;46.08;;;7.80;99.90;;;;;;5068215;28;20119;-81
2023/04/10 00:26:56;;;;;;;95.47;45.55;;;7.90;99.90;;;;;;5072999;28;20508;-81
2023/04/10 00:29:22;;;;;;;103.82;47.95;;;7.80;99.90;;;;;;5072494;28;20056;-79
2023/04/10 00:31:48;;;;;;;93.30;45.70;;;7.70;99.90;;;;;;5072850;28;20049;-78
2023/04/10 00:34:15;;;;;;;99.38;43.00;;;7.80;99.90;;;;;;5072634;28;20043;-80
2023/04/10 00:36:41;;;;;;;98.60;46.38;;;7.70;99.90;;;;;;5105064;28;20054;-81
2023/04/10 00:39:08;;;;;;;96.88;46.63;;;7.70;99.90;;;;;;5072908;28;20471;-80
2023/04/10 00:41:34;;;;;;;97.25;47.28;;;7.70;99.90;;;;;;5056209;28;20045;-80
2023/04/10 00:43:59;;;;;;;102.50;45.42;;;7.70;99.90;;;;;;5053197;28;20041;-81
2023/04/10 00:46:26;;;;;;;101.85;46.20;;;7.70;99.90;;;;;;5052732;28;20088;-81
2023/04/10 00:48:53;;;;;;;102.30;45.72;;;7.60;99.90;;;;;;5034991;28;20099;-81
2023/04/10 00:51:20;;;;;;;105.00;49.65;;;7.60;99.90;;;;;;5051023;28;20049;-81
2023/04/10 00:53:49;;;;;;;104.57;49.80;;;7.50;99.90;;;;;;5050796;28;20049;-81
2023/04/10 00:56:16;;;;;;;112.32;51.28;;;7.50;99.90;;;;;;5051672;28;20053;-82
2023/04/10 00:58:42;;;;;;;106.47;50.63;;;7.50;99.90;;;;;;5052772;28;20048;-82
2023/04/10 01:01:07;;;;;;;110.85;49.17;;;7.50;99.90;;;;;;5052619;28;20055;-80
2023/04/10 01:03:34;;;;;;;114.20;52.03;;;7.60;99.90;;;;;;5051760;28;20047;-80
2023/04/10 01:06:15;;;;;;;106.18;46.72;;;7.50;99.90;;;;;;5052366;28;20061;-83
2023/04/10 01:08:59;;;;;;;119.95;53.63;;;7.60;99.90;;;;;;5052139;28;20068;-81
2023/04/10 01:11:28;;;;;;;116.47;53.17;;;7.50;99.90;;;;;;5052784;28;20398;-79
2023/04/10 01:14:08;;;;;;;97.60;42.33;;;7.40;99.90;;;;;;5057739;28;20087;-81
2023/04/10 01:16:40;;;;;;;121.63;53.92;;;7.50;99.90;;;;;;5076507;28;20131;-81
2023/04/10 01:19:25;;;;;;;118.60;55.22;;;7.50;99.90;;;;;;5077497;28;20052;-79
2023/04/10 01:21:54;;;;;;;111.63;50.83;;;7.40;99.90;;;;;;5074130;28;20374;-79
2023/04/10 01:24:32;;;;;;;117.45;55.70;;;7.40;99.90;;;;;;5074429;28;20043;-81
2023/04/10 01:27:28;;;;;;;128.00;56.38;;;7.40;99.90;;;;;;5074937;28;20052;-80
2023/04/10 01:29:57;;;;;;;124.78;57.38;;;7.40;99.90;;;;;;5074990;28;20067;-80
2023/04/10 01:32:23;;;;;;;125.18;56.42;;;7.30;99.90;;;;;;5058684;28;20049;-79
2023/04/10 01:34:53;;;;;;;117.85;57.53;;;7.30;99.90;;;;;;5052256;28;20044;-79
2023/04/10 01:37:26;;;;;;;121.38;58.22;;;7.30;99.90;;;;;;5051497;28;20049;-79
2023/04/10 01:39:59;;;;;;;125.15;56.67;;;7.20;99.90;;;;;;5063536;28;20523;-79
2023/04/10 01:42:29;;;;;;;127.45;57.35;;;7.10;99.90;;;;;;5071587;28;20048;-78
2023/04/10 01:44:56;;;;;;;126.90;57.38;;;7.10;99.90;;;;;;5072642;28;20041;-81
2023/04/10 01:47:24;;;;;;;112.75;51.47;;;7.10;99.90;;;;;;5080003;28;20041;-80
2023/04/10 01:49:51;;;;;;;128.18;57.97;;;7.10;99.90;;;;;;5064396;28;20049;-80
2023/04/10 01:52:18;;;;;;;127.72;56.90;;;7.20;99.90;;;;;;5059575;28;20416;-81
2023/04/10 01:54:47;;;;;;;122.30;57.33;;;7.20;99.90;;;;;;5060368;28;20246;-79
2023/04/10 01:57:14;;;;;;;131.00;58.60;;;7.30;99.90;;;;;;5054383;28;20064;-79
2023/04/10 01:59:41;;;;;;;125.13;58.00;;;7.20;99.90;;;;;;5052177;28;20068;-79
2023/04/10 02:02:06;;;;;;;116.78;53.92;;;7.20;99.90;;;;;;5052137;28;20115;-80
2023/04/10 02:04:32;;;;;;;121.55;55.70;;;7.10;99.90;;;;;;5053825;28;20045;-78
2023/04/10 02:07:03;;;;;;;127.15;57.63;;;6.90;99.90;;;;;;5055146;28;20041;-81
2023/04/10 02:09:35;;;;;;;129.20;55.83;;;7.00;99.90;;;;;;5060910;28;20047;-80
2023/04/10 02:12:06;;;;;;;98.57;44.17;;;7.00;99.90;;;;;;5057339;28;20489;-80
2023/04/10 02:14:35;;;;;;;126.88;57.78;;;7.10;99.90;;;;;;5054633;28;20041;-79
2023/04/10 02:17:02;;;;;;;119.03;52.42;;;7.00;99.90;;;;;;5054657;28;20045;-79
2023/04/10 02:19:29;;;;;;;;;;;7.00;99.90;;;;;;5076074;28;20064;-77
2023/04/10 02:21:56;;;;;;;126.70;56.40;;;7.00;99.90;;;;;;5060709;28;20388;-78
2023/04/10 02:24:22;;;;;;;129.02;59.63;;;7.00;99.90;;;;;;5079104;28;20109;-80
2023/04/10 02:26:52;;;;;;;127.70;54.08;;;7.00;99.90;;;;;;5077873;28;20127;-80
2023/04/10 02:29:18;;;;;;;128.07;56.25;;;7.00;99.90;;;;;;5075278;28;20052;-81
2023/04/10 02:31:44;;;;;;;127.95;58.05;;;7.20;99.90;;;;;;5073963;28;20044;-78
2023/04/10 02:34:11;;;;;;;123.10;56.15;;;7.00;99.90;;;;;;5073882;28;20082;-80
2023/04/10 02:36:38;;;;;;;130.15;57.90;;;7.00;99.90;;;;;;5057238;28;20044;-83
2023/04/10 02:39:04;;;;;;;131.98;55.53;;;6.90;99.90;;;;;;5070646;28;20051;-82
2023/04/10 02:41:30;;;;;;;128.35;56.88;;;7.00;99.90;;;;;;5055092;28;20106;-81
2023/04/10 02:43:56;;;;;;;122.95;56.22;;;7.00;99.90;;;;;;5056085;28;20044;-86
2023/04/10 02:46:22;;;;;;;124.38;54.55;;;6.90;99.90;;;;;;5060527;28;20049;-86
2023/04/10 02:48:48;;;;;;;126.60;55.03;;;6.90;99.90;;;;;;5059424;28;20106;-85
2023/04/10 02:51:13;;;;;;;119.53;54.78;;;6.90;99.90;;;;;;5058058;28;20144;-86
2023/04/10 02:53:39;;;;;;;120.10;54.35;;;6.90;99.90;;;;;;5056484;28;20053;-86
2023/04/10 02:56:06;;;;;;;121.07;52.50;;;6.80;99.90;;;;;;5057432;28;20059;-84
2023/04/10 02:58:32;;;;;;;;;;;6.90;99.90;;;;;;5062075;28;20055;-85
2023/04/10 03:00:58;;;;;;;118.20;51.87;;;6.90;99.90;;;;;;5057727;28;20365;-84
2023/04/10 03:03:24;;;;;;;124.35;51.95;;;7.00;99.90;;;;;;5059511;28;20049;-87
2023/04/10 03:05:50;;;;;;;121.90;52.97;;;6.90;99.90;;;;;;5059715;28;20192;-83
2023/04/10 03:08:16;;;;;;;114.60;48.33;;;6.80;99.90;;;;;;5044266;28;20049;-85
2023/04/10 03:10:47;;;;;;;117.47;51.87;;;6.90;99.90;;;;;;5057983;28;20139;-87
2023/04/10 03:13:14;;;;;;;126.55;51.22;;;7.00;99.90;;;;;;5058192;28;20397;-86
2023/04/10 03:15:40;;;;;;;113.88;49.28;;;6.90;99.90;;;;;;5058227;28;20045;-87
2023/04/10 03:18:05;;;;;;;110.28;49.28;;;7.10;99.90;;;;;;5058911;28;20380;-82
2023/04/10 03:20:40;;;;;;;112.75;48.38;;;7.20;99.90;;;;;;5058666;28;20045;-87
2023/04/10 03:23:06;;;;;;;111.93;46.95;;;7.10;99.90;;;;;;5060505;28;20152;-88
2023/04/10 03:25:35;;;;;;;118.95;48.78;;;7.00;99.90;;;;;;5061630;28;20045;-87
2023/04/10 03:28:01;;;;;;;116.95;49.10;;;7.00;99.90;;;;;;5059325;28;20053;-85
2023/04/10 03:30:27;;;;;;;114.55;49.53;;;7.00;99.90;;;;;;5058048;28;20041;-87
2023/04/10 03:32:53;;;;;;;116.63;51.95;;;7.50;99.90;;;;;;5059175;28;20403;-87
2023/04/10 03:35:18;;;;;;;103.75;44.88;;;7.00;99.90;;;;;;5057044;28;20389;-87
2023/04/10 03:37:44;;;;;;;125.35;50.40;;;6.90;99.90;;;;;;5059373;28;20052;-87
2023/04/10 03:40:10;;;;;;;115.63;48.63;;;7.00;99.90;;;;;;5041398;28;20444;-86
2023/04/10 03:42:36;;;;;;;119.10;50.17;;;7.00;99.90;;;;;;5058012;28;20045;-83
2023/04/10 03:45:03;;;;;;;116.95;49.95;;;7.00;99.90;;;;;;5058169;28;20064;-86
2023/04/10 03:47:33;;;;;;;117.30;49.15;;;6.90;99.90;;;;;;5058919;28;20040;-85
2023/04/10 03:49:59;;;;;;;119.22;49.50;;;7.20;99.90;;;;;;5056298;28;20048;-83
2023/04/10 03:52:26;;;;;;;126.00;50.00;;;7.30;99.90;;;;;;5056940;28;20051;-83
2023/04/10 03:54:53;;;;;;;117.63;50.78;;;7.40;99.90;;;;;;5056814;28;20488;-84
2023/04/10 03:57:20;;;;;;;121.87;50.33;;;6.90;99.90;;;;;;5058794;28;20083;-85
2023/04/10 03:59:46;;;;;;;119.55;49.55;;;7.00;99.90;;;;;;5057812;28;20476;-84
2023/04/10 04:02:12;;;;;;;126.90;49.65;;;6.90;99.90;;;;;;5040692;28;20146;-85
2023/04/10 04:04:39;;;;;;;118.97;50.20;;;6.90;99.90;;;;;;5058454;28;20477;-85
2023/04/10 04:07:04;;;;;;;139.15;49.22;;;7.00;99.90;;;;;;5056275;28;20045;-82
2023/04/10 04:09:30;;;;;;;127.25;51.55;;;7.20;99.90;;;;;;5055151;28;20051;-85
2023/04/10 04:11:56;;;;;;;121.88;50.30;;;7.10;99.90;;;;;;5037914;28;20048;-85
2023/04/10 04:14:22;;;;;;;133.27;53.15;;;7.40;99.90;;;;;;5056411;28;20045;-85
2023/04/10 04:16:49;;;;;;;132.63;51.27;;;7.10;99.90;;;;;;5055595;28;20052;-84
2023/04/10 04:19:14;;;;;;;126.22;51.03;;;7.20;99.90;;;;;;5054739;28;20063;-85
2023/04/10 04:21:40;;;;;;;119.35;45.58;;;7.20;99.90;;;;;;5038612;28;20049;-83
2023/04/10 04:24:06;;;;;;;121.57;49.58;;;7.00;99.90;;;;;;5055890;28;20359;-83
2023/04/10 04:26:32;;;;;;;125.38;50.67;;;7.20;99.90;;;;;;5058906;28;20436;-86
2023/04/10 04:28:58;;;;;;;124.67;46.60;;;7.20;99.90;;;;;;5059435;28;20036;-86
2023/04/10 04:31:24;;;;;;;130.48;48.22;;;7.30;99.90;;;;;;5059730;28;20121;-86
2023/04/10 04:33:50;;;;;;;128.27;50.25;;;7.10;99.90;;;;;;5055912;28;20047;-83
2023/04/10 04:36:15;;;;;;;129.52;52.63;;;7.20;99.90;;;;;;5058613;28;20077;-84
2023/04/10 04:38:41;;;;;;;124.60;51.70;;;7.30;99.90;;;;;;5057152;28;20041;-83
2023/04/10 04:41:07;;;;;;;127.35;50.70;;;7.30;99.90;;;;;;5056199;28;20074;-84
2023/04/10 04:43:33;;;;;;;125.75;47.88;;;7.30;99.90;;;;;;5040145;28;20075;-85
2023/04/10 04:45:59;;;;;;;125.57;49.08;;;7.10;99.90;;;;;;5054077;28;20045;-86
2023/04/10 04:48:24;;;;;;;127.40;49.45;;;7.30;99.90;;;;;;5055301;28;20037;-85
2023/04/10 04:50:50;;;;;;;121.20;51.28;;;7.50;99.90;;;;;;5054331;28;20477;-86
2023/04/10 04:53:16;;;;;;;126.18;48.72;;;7.40;99.90;;;;;;5055377;28;20048;-83
2023/04/10 04:55:41;;;;;;;122.65;49.72;;;7.30;99.90;;;;;;5055509;28;20044;-85
2023/04/10 04:58:08;;;;;;;120.88;47.90;;;7.20;99.90;;;;;;5057264;28;20103;-86
2023/04/10 05:00:34;;;;;;;123.60;49.42;;;7.10;99.90;;;;;;5038881;28;20052;-87
2023/04/10 05:03:00;;;;;;;120.03;48.10;;;7.20;99.90;;;;;;5056339;28;20091;-85
2023/04/10 05:05:25;;;;;;;120.47;49.10;;;7.30;99.90;;;;;;5057902;28;20392;-86
2023/04/10 05:07:51;;;;;;;120.13;49.05;;;7.20;99.90;;;;;;5059615;28;20045;-86
2023/04/10 05:10:17;;;;;;;121.78;47.95;;;7.00;99.90;;;;;;5055556;28;20405;-87
2023/04/10 05:12:42;;;;;;;119.38;46.97;;;7.00;99.90;;;;;;5056188;28;20052;-83
2023/04/10 05:15:09;;;;;;;119.50;46.70;;;7.20;99.90;;;;;;5054261;28;20146;-84
2023/04/10 05:17:34;;;;;;;124.88;49.75;;;7.10;99.90;;;;;;5053105;28;20045;-85
2023/04/10 05:20:00;;;;;;;125.20;49.88;;;7.20;99.90;;;;;;5058128;28;20124;-79
2023/04/10 05:22:29;;;;;;;124.88;50.50;;;7.10;99.90;;;;;;5056008;28;20044;-86
2023/04/10 05:24:58;;;;;;;120.28;48.53;;;7.20;99.90;;;;;;5039297;28;20417;-84
2023/04/10 05:27:24;;;;;;;134.65;53.35;;;7.30;99.90;;;;;;5054919;28;20049;-85
2023/04/10 05:29:49;;;;;;;131.48;50.95;;;7.30;99.90;;;;;;5056041;28;20044;-85
2023/04/10 05:32:15;;;;;;;132.88;51.63;;;7.30;99.90;;;;;;5059051;28;20090;-86
2023/04/10 05:34:41;;;;;;;131.70;51.33;;;7.30;99.90;;;;;;5059253;28;20044;-86
2023/04/10 05:37:08;;;;;;;127.53;46.78;;;7.40;99.90;;;;;;5057193;28;20081;-85
2023/04/10 05:39:33;;;;;;;121.50;48.35;;;7.20;99.90;;;;;;5059647;28;20048;-89
2023/04/10 05:42:00;;;;;;;130.13;52.17;;;7.30;99.90;;;;;;5060410;28;20053;-85
2023/04/10 05:44:26;;;;;;;129.98;50.75;;;7.60;99.90;;;;;;5062141;28;20048;-82
2023/04/10 05:46:55;;;;;;;122.85;46.20;;;7.60;99.90;;;;;;5067005;28;20083;-83
2023/04/10 05:49:21;;;;;;;133.75;51.78;;;7.60;99.90;;;;;;5070318;28;20053;-83
2023/04/10 05:51:51;;;;;;;133.32;50.38;;;7.60;99.90;;;;;;5073533;28;20052;-83
2023/04/10 05:54:20;;;;;;;137.13;52.10;;;7.80;99.90;;;;;;5067711;28;20366;-85
2023/04/10 05:56:45;;;;;;;137.90;54.50;;;7.70;99.90;;;;;;5067337;28;20088;-84
2023/04/10 05:59:12;;;;;;;136.75;50.22;;;7.90;99.90;;;;;;5065921;28;20053;-84
2023/04/10 06:01:38;;;;;;;119.68;46.10;;;7.90;99.90;;;;;;5065704;28;20095;-88
2023/04/10 06:04:07;;;;;;;146.60;57.47;;;8.10;99.90;;;;;;5060336;28;20044;-84
2023/04/10 06:06:33;;;;;;;140.95;56.30;;;8.70;99.90;;;;;;5059364;28;20048;-83
2023/04/10 06:08:58;;;;;;;142.25;55.58;;;8.10;99.90;;;;;;5060651;28;20106;-86
2023/04/10 06:11:24;;;;;;;152.90;57.25;;;8.00;99.90;;;;;;5059621;28;20144;-84
2023/04/10 06:13:50;;;;;;;145.18;55.45;;;8.10;99.90;;;;;;5045166;28;20052;-85
2023/04/10 06:16:16;;;;;;;115.00;43.40;;;8.20;99.90;;;;;;5062735;28;20044;-86
2023/04/10 06:18:42;;;;;;;140.10;52.63;;;8.40;99.90;;;;;;5059903;28;20041;-83
2023/04/10 06:21:08;;;;;;;150.77;57.03;;;8.50;99.90;;;;;;5059573;28;20080;-86
2023/04/10 06:23:34;;;;;;;125.28;45.22;;;8.40;99.90;;;;;;5062006;28;20053;-85
2023/04/10 06:26:02;;;;;;;134.35;53.38;;;8.50;99.90;;;;;;5061407;28;20072;-84
2023/04/10 06:28:28;;;;;;;144.45;54.05;;;8.60;99.90;;;;;;5063099;28;20107;-84
2023/04/10 06:30:54;;;;;;;132.90;50.42;;;8.80;99.90;;;;;;5060347;28;20435;-83
2023/04/10 06:33:22;;;;;;;124.65;48.42;;;8.70;99.90;;;;;;5060620;28;20389;-83
2023/04/10 06:35:47;;;;;;;129.43;47.63;;;8.70;99.90;;;;;;5062469;28;20104;-87
2023/04/10 06:38:17;;;;;;;131.88;52.25;;;8.80;99.90;;;;;;5045293;28;20052;-82
2023/04/10 06:40:43;;;;;;;126.82;48.58;;;9.00;99.90;;;;;;5061052;28;20496;-82
2023/04/10 06:43:09;;;;;;;112.68;43.28;;;9.10;99.90;;;;;;5060032;28;20049;-83
2023/04/10 06:45:35;;;;;;;124.50;46.97;;;9.10;99.90;;;;;;5059270;28;20048;-84
2023/04/10 06:48:00;;;;;;;120.75;47.25;;;9.10;99.90;;;;;;5062139;28;20044;-85
2023/04/10 06:50:26;;;;;;;99.07;39.20;;;9.20;99.90;;;;;;5039390;28;20497;-86
2023/04/10 06:52:54;;;;;;;102.68;38.85;;;9.20;99.90;;;;;;5056854;28;20057;-89
2023/04/10 06:55:20;;;;;;;114.93;44.72;;;9.20;99.90;;;;;;5057581;28;20044;-84
2023/04/10 06:57:46;;;;;;;99.70;38.22;;;9.40;99.90;;;;;;5039659;28;20093;-84
2023/04/10 07:00:12;;;;;;;111.35;45.13;;;9.50;99.90;;;;;;5055795;28;20081;-81
2023/04/10 07:02:38;;;;;;;111.03;44.58;;;9.40;99.90;;;;;;5038552;28;20494;-82
2023/04/10 07:05:04;;;;;;;104.90;43.28;;;9.50;99.90;;;;;;5054465;28;20138;-81
2023/04/10 07:07:30;;;;;;;110.55;43.20;;;9.50;99.90;;;;;;5056211;28;20045;-85
2023/04/10 07:09:56;;;;;;;97.97;39.60;;;9.50;99.90;;;;;;5056500;28;20493;-83
2023/04/10 07:12:22;;;;;;;106.03;41.17;;;9.60;99.90;;;;;;5055256;28;20045;-82
2023/04/10 07:14:48;;;;;;;98.40;39.17;;;9.90;99.90;;;;;;5055994;28;20387;-84
2023/04/10 07:17:14;;;;;;;94.75;40.50;;;9.90;99.90;;;;;;5056622;28;20049;-84
2023/04/10 07:19:40;;;;;;;99.97;39.70;;;10.10;99.90;;;;;;5057685;28;20049;-84
2023/04/10 07:22:06;;;;;;;91.53;38.33;;;10.00;99.90;;;;;;5054373;28;20045;-84
2023/04/10 07:24:31;;;;;;;87.20;34.90;;;10.00;99.90;;;;;;5057042;28;20045;-84
2023/04/10 07:26:59;;;;;;;89.50;38.25;;;10.20;99.90;;;;;;5056683;28;20076;-83
2023/04/10 07:29:25;;;;;;;89.57;36.33;;;10.20;99.90;;;;;;5055593;28;20045;-83
2023/04/10 07:31:50;;;;;;;88.93;37.63;;;10.20;99.90;;;;;;5054680;28;20041;-81
2023/04/10 07:34:16;;;;;;;85.40;35.53;;;10.40;99.90;;;;;;5055155;28;20124;-83
2023/04/10 07:36:42;;;;;;;91.53;35.90;;;10.50;99.90;;;;;;5056123;28;20088;-86
2023/04/10 07:39:11;;;;;;;84.18;33.67;;;;;;;;;;5055841;28;20045;-87
2023/04/10 07:41:36;;;;;;;74.35;27.95;;;10.70;99.90;;;;;;5039104;28;20136;-86
2023/04/10 07:44:02;;;;;;;83.15;33.42;;;11.00;99.90;;;;;;5054846;28;20081;-81
2023/04/10 07:46:28;;;;;;;86.20;33.67;;;11.00;99.90;;;;;;5055767;28;20041;-81
2023/04/10 07:48:54;;;;;;;79.15;32.75;;;11.10;99.90;;;;;;5055169;28;20048;-85
2023/04/10 07:51:21;;;;;;;76.78;29.10;;;11.20;99.90;;;;;;5054372;28;20053;-83
2023/04/10 07:53:49;;;;;;;64.80;27.17;;;11.30;99.90;;;;;;5055664;28;20106;-81
2023/04/10 07:56:19;;;;;;;73.75;30.13;;;11.50;99.90;;;;;;5055131;28;20061;-81
2023/04/10 07:58:46;;;;;;;72.22;27.17;;;11.50;99.90;;;;;;5054664;28;20049;-81
2023/04/10 08:01:12;;;;;;;69.38;28.90;;;11.80;99.90;;;;;;5056467;28;20473;-81
2023/04/10 08:03:42;;;;;;;67.78;29.63;;;11.90;99.90;;;;;;5057508;28;20051;-82
2023/04/10 08:06:09;;;;;;;67.28;26.85;;;12.10;99.90;;;;;;5060781;28;20385;-84
2023/04/10 08:08:40;;;;;;;59.63;26.23;;;12.20;99.90;;;;;;5058528;28;20570;-79
2023/04/10 08:11:22;;;;;;;59.53;25.33;;;12.30;99.90;;;;;;5055771;28;20109;-84
2023/04/10 08:13:48;;;;;;;59.45;22.90;;;12.50;99.90;;;;;;5054150;28;20084;-83
2023/04/10 08:16:13;;;;;;;55.65;22.85;;;12.60;99.90;;;;;;5054846;28;20108;-85
2023/04/10 08:18:40;;;;;;;53.60;21.77;;;12.70;99.90;;;;;;5055092;28;20124;-79
2023/04/10 08:21:06;;;;;;;53.65;22.23;;;12.70;99.90;;;;;;5055542;28;20045;-80
2023/04/10 08:23:31;;;;;;;52.50;22.63;;;12.80;99.90;;;;;;5054473;28;20049;-86
2023/04/10 08:25:57;;;;;;;53.08;20.20;;;12.80;99.90;;;;;;5056692;28;20102;-81
2023/04/10 08:28:23;;;;;;;53.90;22.13;;;12.90;99.90;;;;;;5061360;28;20049;-86
2023/04/10 08:30:49;;;;;;;44.17;18.10;;;12.90;99.90;;;;;;5057888;28;20045;-82
2023/04/10 08:33:14;;;;;;;48.25;21.30;;;12.80;99.90;;;;;;5056103;28;20049;-83
2023/04/10 08:35:40;;;;;;;47.38;19.35;;;12.80;99.90;;;;;;5055177;28;20064;-81
2023/04/10 08:38:06;;;;;;;38.58;15.25;;;12.90;99.90;;;;;;5055734;28;20520;-82
2023/04/10 08:40:36;;;;;;;44.83;18.77;;;13.10;99.90;;;;;;5056298;28;20041;-82
2023/04/10 08:43:02;;;;;;;44.67;19.90;;;13.20;99.90;;;;;;5037735;28;20496;-81
2023/04/10 08:45:27;;;;;;;43.58;20.00;;;13.20;99.90;;;;;;5036669;28;20040;-82
2023/04/10 08:47:57;;;;;;;42.67;17.90;;;13.20;99.90;;;;;;5053816;28;20060;-81
2023/04/10 08:50:23;;;;;;;58.83;20.60;;;13.20;99.90;;;;;;5054366;28;20044;-84
2023/04/10 08:52:51;;;;;;;51.50;20.70;;;13.30;99.90;;;;;;5036111;28;20053;-82
2023/04/10 08:55:18;;;;;;;40.22;17.35;;;13.40;99.90;;;;;;5053739;28;20194;-83
2023/04/10 08:57:45;;;;;;;38.17;15.38;;;13.60;99.90;;;;;;5052329;28;20057;-83
2023/04/10 09:00:11;;;;;;;41.47;18.30;;;13.60;99.90;;;;;;5053991;28;20045;-82
2023/04/10 09:02:39;;;;;;;44.35;18.67;;;13.70;99.90;;;;;;5053326;28;20045;-81
2023/04/10 09:05:04;;;;;;;;;;;13.80;99.90;;;;;;5053359;28;20114;-85
2023/04/10 09:07:30;;;;;;;37.83;15.75;;;13.90;99.90;;;;;;5053518;28;20372;-80
2023/04/10 09:09:56;;;;;;;39.78;16.42;;;14.00;99.60;;;;;;5035756;28;20044;-81
2023/04/10 09:12:22;;;;;;;47.00;18.45;;;14.10;99.90;;;;;;5035864;28;20315;-82
2023/04/10 09:14:52;;;;;;;33.88;15.13;;;14.20;99.90;;;;;;5051832;28;20120;-80
2023/04/10 09:17:23;;;;;;;31.33;14.32;;;14.30;98.90;;;;;;5053012;28;20443;-82
2023/04/10 09:19:51;;;;;;;26.65;12.32;;;14.30;98.30;;;;;;5051731;28;20540;-80
2023/04/10 09:22:18;;;;;;;27.23;12.50;;;14.40;99.20;;;;;;5053420;28;20103;-81
2023/04/10 09:24:46;;;;;;;36.72;16.27;;;14.60;99.20;;;;;;5036555;28;20088;-83
2023/04/10 09:27:33;;;;;;;27.90;13.25;;;14.70;98.80;;;;;;5052704;28;20049;-79
2023/04/10 09:30:00;;;;;;;31.70;13.32;;;14.60;97.20;;;;;;5053594;28;20124;-80
2023/04/10 09:32:39;;;;;;;27.33;13.23;;;14.80;97.50;;;;;;5052753;28;20049;-79
2023/04/10 09:35:06;;;;;;;25.45;12.88;;;14.90;97.90;;;;;;5052141;28;20085;-82
2023/04/10 09:37:35;;;;;;;25.73;11.75;;;14.70;97.80;;;;;;5053547;28;20094;-82
2023/04/10 09:40:02;;;;;;;24.65;12.70;;;14.90;97.50;;;;;;5052454;28;20086;-80
2023/04/10 09:42:33;;;;;;;38.60;15.00;;;14.90;97.70;;;;;;5052995;28;20075;-82
2023/04/10 09:45:00;;;;;;;24.92;10.68;;;15.00;98.00;;;;;;5053120;28;20436;-78
2023/04/10 09:47:26;;;;;;;25.42;12.20;;;15.00;97.70;;;;;;5053599;28;20088;-81
2023/04/10 09:49:54;;;;;;;23.92;12.25;;;14.80;96.40;;;;;;5051999;28;20516;-79
2023/04/10 09:52:27;;;;;;;23.35;9.20;;;14.80;96.50;;;;;;5055643;28;20493;-82
2023/04/10 09:55:01;;;;;;;24.80;11.60;;;15.00;96.80;;;;;;5053695;28;20047;-80
2023/04/10 09:57:28;;;;;;;21.48;11.70;;;14.80;96.20;;;;;;5053125;28;20067;-80
2023/04/10 09:59:56;;;;;;;24.05;11.57;;;14.90;96.60;;;;;;5053028;28;20052;-82
2023/04/10 10:02:24;;;;;;;21.98;9.85;;;15.00;97.30;;;;;;5053282;28;20045;-82
2023/04/10 10:04:51;;;;;;;21.08;10.40;;;15.20;97.20;;;;;;5052012;28;20095;-82
2023/04/10 10:07:22;;;;;;;23.98;11.13;;;15.40;97.00;;;;;;5053119;28;20052;-80
2023/04/10 10:09:50;;;;;;;18.30;8.60;;;15.50;96.20;;;;;;5052988;28;20052;-80
2023/04/10 10:12:22;;;;;;;19.45;9.65;;;15.60;95.90;;;;;;5053044;28;20051;-84
2023/04/10 10:15:00;;;;;;;21.63;10.57;;;15.60;96.20;;;;;;5052818;28;20055;-82
2023/04/10 10:17:50;;;;;;;22.70;9.27;;;15.60;95.70;;;;;;5052333;28;20091;-79
2023/04/10 10:20:19;;;;;;;20.05;9.00;;;15.90;95.70;;;;;;5051903;28;20049;-83
2023/04/10 10:22:46;;;;;;;19.25;8.90;;;15.70;95.10;;;;;;5035460;28;20044;-78
2023/04/10 10:25:12;;;;;;;19.23;8.70;;;15.70;94.80;;;;;;5055746;28;20080;-81
2023/04/10 10:27:40;;;;;;;16.88;6.70;;;15.80;95.20;;;;;;5056406;28;20041;-81
2023/04/10 10:30:08;;;;;;;17.10;7.90;;;16.00;94.30;;;;;;5055530;28;20049;-81
2023/04/10 10:32:35;;;;;;;20.83;8.52;;;16.00;94.50;;;;;;5055248;28;20052;-77
2023/04/10 10:35:02;;;;;;;;;;;15.90;94.50;;;;;;5056741;28;20366;-83
2023/04/10 10:37:29;;;;;;;17.77;8.02;;;16.00;94.60;;;;;;5055469;28;19975;-82
2023/04/10 10:40:15;;;;;;;16.52;7.70;;;16.20;94.80;;;;;;5056322;28;20132;-83
2023/04/10 10:42:44;;;;;;;;;;;16.30;94.60;;;;;;5056845;28;20045;-83
2023/04/10 10:45:20;;;;;;;15.45;7.65;;;16.40;94.80;;;;;;5039138;28;19921;-80
2023/04/10 10:47:55;;;;;;;16.20;8.02;;;16.30;93.60;;;;;;5056000;28;20049;-83
2023/04/10 10:50:24;;;;;;;16.50;7.50;;;16.30;94.10;;;;;;5056240;28;20052;-81
2023/04/10 10:52:56;;;;;;;13.52;6.97;;;16.50;94.90;;;;;;5056275;28;20129;-80
2023/04/10 10:55:23;;;;;;;13.60;6.80;;;16.60;93.60;;;;;;5055151;28;20045;-77
2023/04/10 10:57:52;;;;;;;13.38;6.63;;;16.40;93.40;;;;;;5054587;28;20107;-79
2023/04/10 11:00:20;;;;;;;15.95;6.75;;;16.20;92.70;;;;;;5055837;28;20128;-80
2023/04/10 11:03:08;;;;;;;13.85;6.55;;;16.30;92.50;;;;;;5054693;28;20480;-77
2023/04/10 11:05:51;;;;;;;14.38;6.70;;;16.50;93.40;;;;;;5038528;28;20194;-80
2023/04/10 11:08:17;;;;;;;15.38;7.38;;;16.50;93.10;;;;;;5055526;28;20102;-80
2023/04/10 11:11:22;;;;;;;13.05;6.82;;;16.50;92.60;;;;;;5055975;28;20045;-82
2023/04/10 11:13:55;;;;;;;13.75;6.82;;;16.50;93.50;;;;;;4997340;28;20415;-78
2023/04/10 11:16:42;;;;;;;17.90;8.20;;;16.60;93.90;;;;;;4998513;28;20058;-82
2023/04/10 11:19:13;;;;;;;13.00;6.30;;;16.80;94.40;;;;;;5041578;28;20053;-80
2023/04/10 11:21:58;;;;;;;12.93;6.32;;;17.00;93.70;;;;;;5056559;28;20374;-79
2023/04/10 11:24:23;;;;;;;13.27;6.45;;;16.90;92.80;;;;;;5055398;28;20128;-81
2023/04/10 11:26:49;;;;;;;12.77;6.10;;;16.60;92.80;;;;;;5055428;28;20481;-82
2023/04/10 11:29:18;;;;;;;15.83;6.63;;;16.90;92.70;;;;;;5054052;28;20094;-82
2023/04/10 11:31:45;;;;;;;14.40;6.63;;;16.70;93.10;;;;;;5038788;28;20088;-84
2023/04/10 11:34:11;;;;;;;11.88;6.53;;;16.80;92.50;;;;;;5056334;28;20091;-79
2023/04/10 11:36:41;;;;;;;12.85;5.95;;;16.80;92.70;;;;;;5055353;28;20053;-81
2023/04/10 11:39:11;;;;;;;14.45;6.18;;;16.60;93.00;;;;;;5055224;28;20075;-81
2023/04/10 11:41:39;;;;;;;11.65;5.47;;;16.70;93.10;;;;;;5056165;28;20391;-82
2023/04/10 11:44:10;;;;;;;14.02;6.30;;;16.70;92.10;;;;;;5054628;28;20041;-81
2023/04/10 11:46:37;;;;;;;10.73;5.60;;;16.50;91.50;;;;;;5056006;28;20045;-85
2023/04/10 11:49:05;;;;;;;12.95;6.10;;;16.60;92.10;;;;;;5037552;28;20055;-78
2023/04/10 11:51:31;;;;;;;10.32;5.85;;;16.70;91.70;;;;;;5055602;28;20041;-83
2023/04/10 11:54:15;;;;;;;10.30;5.75;;;16.80;91.70;;;;;;5054725;28;20045;-80
2023/04/10 11:56:44;;;;;;;12.98;5.50;;;16.70;91.70;;;;;;5055142;28;20105;-80
2023/04/10 11:59:12;;;;;;;10.40;5.88;;;16.90;91.60;;;;;;5053720;28;20055;-79
2023/04/10 12:01:39;;;;;;;10.60;4.80;;;16.80;92.00;;;;;;5055053;28;20110;-83
2023/04/10 12:04:12;;;;;;;;;;;16.80;92.20;;;;;;5056002;28;20123;-82
2023/04/10 12:06:37;;;;;;;13.00;5.70;;;17.10;92.00;;;;;;5087357;28;19920;-80
2023/04/10 12:09:16;;;;;;;13.20;6.45;;;17.20;92.40;;;;;;5055419;28;20056;-80
2023/04/10 12:11:58;;;;;;;13.68;6.53;;;17.20;91.60;;;;;;5055162;28;20052;-80
2023/04/10 12:14:35;;;;;;;11.50;6.28;;;17.00;92.10;;;;;;5055036;28;20045;-81
2023/04/10 12:17:02;;;;;;;12.82;5.78;;;17.30;92.20;;;;;;5056165;28;20080;-81
2023/04/10 12:19:29;;;;;;;12.18;6.05;;;17.40;92.60;;;;;;5055875;28;20076;-81
2023/04/10 12:21:56;;;;;;;11.80;5.70;;;17.30;91.50;;;;;;5054784;28;20045;-79
2023/04/10 12:24:42;;;;;;;;;;;17.40;92.10;;;;;;5055755;28;20378;-82
2023/04/10 12:27:28;;;;;;;22.45;9.00;;;17.50;91.70;;;;;;5056075;28;20016;-83
2023/04/10 12:29:56;;;;;;;16.38;7.32;;;17.30;91.90;;;;;;5056168;28;20107;-80
2023/04/10 12:32:23;;;;;;;10.60;5.93;;;17.20;92.20;;;;;;5055152;28;20114;-83
2023/04/10 12:35:05;;;;;;;12.07;5.72;;;17.30;92.30;;;;;;5053194;28;20508;-77
2023/04/10 12:37:51;;;;;;;9.05;4.28;;;17.30;91.40;;;;;;5053256;28;20041;-81